Ana Sayfa
METAR-TAF:

METAR-TAF

Havaalanları :

Hatay Havalimanı

Antakya, Türkiye

Enlem: 36-21-46N, Boylam: 36-16-56E, yükseklik: 1950 m

Güncel hava durumu gözlemi

Rapor saat 05:50 UTC de 1 saat ve 2 dakika önce yapıldı.
Sakin rüzgar
Sıcaklık 7°C
Nem 53%
Basınç 1025 hPa
Görüş mesafesi 10 km veya daha fazla
1500 m altında bulut yok ve kümülonimbus yok

METAR: LTDA 180550Z 00000KT CAVOK 07/M02 Q1025 NOSIG

Saat: 09:52 (06:52 UTC)

Tahmin

Rapor saat 04:40 UTC de 2 saat ve 12 dakika önce yapıldı.
Ayın 18'si saat 06 UTC'den ayın 18'si saat 15 UTC'ye kadar geçerli Tahmin
Rüzgar değişken yönden 2 kt
Görüş mesafesi 10 km veya daha fazla
1500 m altında bulut yok ve kümülonimbus yok

TAF: LTDA 180440Z 1806/1815 VRB02KT CAVOK

4.000'den fazla havaalanı için hava durumu gözlemleri ve tahminleri (METAR ve TAF raporları).

Kullanılabilir istasyonlar harita üzerinde sarı ve kırmızı noktalarla gösterilir.

İstasyonun adını görmek için fareyi noktanın üzerinde gezdirin.

Sonrasında hava gözlem ve tahminlerini görmek için tıklayın.

Haritayı değiştirmek için: yaklaştırmak için siyah artı işaretli yeşil düğmeye ve uzaklaştırmak için de eksi işaretli düğmeye hızla tıklayın; bitişik haritalar için yeşil okları kullanın.


METAR-TAF: